Time;durP1;ratioP1;P1;durP2;ratioP2;P2;SDS_P1;SDS_P2;PMS_P1;PMS_P2;Temp;Humidity;BMP_temperature;BMP_pressure;BME280_temperature;BME280_humidity;BME280_pressure;Samples;Min_cycle;Max_cycle;Signal;HPM_P1;HPM_P2
2023/11/29 00:00:13;;;;;;;5.97;4.90;;;;;;;;;;4948833;29;20611;-83
2023/11/29 00:03:17;;;;;;;7.27;5.27;;;;;;;;;;4948950;29;20917;-83
2023/11/29 00:06:21;;;;;;;6.30;4.50;;;;;;;;;;5030722;23;20681;-82
2023/11/29 00:09:25;;;;;;;6.97;4.90;;;;;;;;;;4983452;28;20553;-82
2023/11/29 00:12:29;;;;;;;6.23;4.77;;;;;;;;;;4982886;28;20645;-82
2023/11/29 00:15:34;;;;;;;6.60;4.50;;;;;;;;;;4982858;28;20625;-83
2023/11/29 00:18:38;;;;;;;7.90;4.70;;;;;;;;;;4993971;28;20542;-82
2023/11/29 00:21:43;;;;;;;7.97;5.00;;;;;;;;;;4994237;28;20593;-82
2023/11/29 00:24:48;;;;;;;6.60;4.90;;;;;;;;;;4982658;28;20896;-83
2023/11/29 00:27:52;;;;;;;6.53;5.10;;;;;;;;;;5005181;28;20546;-83
2023/11/29 00:30:56;;;;;;;7.33;5.17;;;;;;;;;;5005863;28;20546;-83
2023/11/29 00:34:01;;;;;;;5.90;4.83;;;;;;;;;;5005014;28;20538;-83
2023/11/29 00:37:05;;;;;;;7.27;5.47;;;;;;;;;;4987898;28;20549;-85
2023/11/29 00:40:10;;;;;;;6.73;5.40;;;;;;;;;;4987207;28;20557;-85
2023/11/29 00:43:14;;;;;;;7.20;5.60;;;;;;;;;;4999369;28;20589;-84
2023/11/29 00:46:19;;;;;;;7.33;5.83;;;;;;;;;;4998713;28;20613;-83
2023/11/29 00:49:23;;;;;;;7.80;5.43;;;;;;;;;;4998374;28;20534;-83
2023/11/29 00:52:28;;;;;;;7.30;5.37;;;;;;;;;;4998870;28;20537;-83
2023/11/29 00:55:32;;;;;;;8.53;6.30;;;;;;;;;;4997940;28;20963;-83
2023/11/29 00:58:36;;;;;;;9.50;6.53;;;;;;;;;;4987178;28;20541;-83
2023/11/29 01:01:40;;;;;;;9.43;7.07;;;;;;;;;;4997724;28;21137;-84
2023/11/29 01:04:45;;;;;;;10.87;7.20;;;;;;;;;;4986513;28;20863;-83
2023/11/29 01:07:49;;;;;;;10.20;7.47;;;;;;;;;;4997652;28;20557;-83
2023/11/29 01:10:54;;;;;;;9.57;6.73;;;;;;;;;;4998749;28;20545;-84
2023/11/29 01:13:58;;;;;;;11.93;8.20;;;;;;;;;;4998923;28;20554;-83
2023/11/29 01:17:02;;;;;;;12.50;7.60;;;;;;;;;;4997513;28;21085;-83
2023/11/29 01:20:06;;;;;;;11.60;7.47;;;;;;;;;;4986229;28;20554;-85
2023/11/29 01:23:11;;;;;;;11.53;7.27;;;;;;;;;;4997503;28;20601;-83
2023/11/29 01:26:15;;;;;;;10.90;7.90;;;;;;;;;;4997562;28;20624;-83
2023/11/29 01:29:19;;;;;;;13.37;7.43;;;;;;;;;;4986298;28;20566;-84
2023/11/29 01:32:24;;;;;;;9.83;7.03;;;;;;;;;;4997943;28;20569;-84
2023/11/29 01:35:28;;;;;;;9.60;6.73;;;;;;;;;;4986036;28;21173;-83
2023/11/29 01:38:32;;;;;;;10.40;7.27;;;;;;;;;;4986052;28;20546;-85
2023/11/29 01:41:36;;;;;;;9.20;6.80;;;;;;;;;;4985825;28;20548;-84
2023/11/29 01:44:40;;;;;;;8.87;6.83;;;;;;;;;;4996693;28;20570;-85
2023/11/29 01:47:44;;;;;;;9.10;6.67;;;;;;;;;;4986372;28;21062;-83
2023/11/29 01:50:52;;;;;;;9.20;6.70;;;;;;;;;;4996894;28;21078;-83
2023/11/29 01:53:59;;;;;;;9.03;6.60;;;;;;;;;;4996799;28;20880;-84
2023/11/29 01:57:03;;;;;;;9.40;6.30;;;;;;;;;;4997009;28;20557;-84
2023/11/29 02:00:08;;;;;;;8.23;5.97;;;;;;;;;;4996788;28;21101;-83
2023/11/29 02:03:20;;;;;;;8.77;6.73;;;;;;;;;;4985421;28;20950;-84
2023/11/29 02:06:24;;;;;;;7.43;5.63;;;;;;;;;;4973833;28;20641;-84
2023/11/29 02:09:28;;;;;;;7.53;5.90;;;;;;;;;;4996468;28;20538;-83
2023/11/29 02:12:33;;;;;;;8.00;6.03;;;;;;;;;;4996604;28;20534;-83
2023/11/29 02:15:37;;;;;;;7.20;5.87;;;;;;;;;;4997104;28;20617;-83
2023/11/29 02:18:41;;;;;;;5.63;4.83;;;;;;;;;;4985532;28;20549;-84
2023/11/29 02:21:45;;;;;;;5.63;4.53;;;;;;;;;;4996240;28;20534;-84
2023/11/29 02:24:50;;;;;;;6.37;5.03;;;;;;;;;;4985570;28;20538;-83
2023/11/29 02:27:54;;;;;;;6.13;4.77;;;;;;;;;;4996173;28;20538;-84
2023/11/29 02:30:58;;;;;;;5.30;4.30;;;;;;;;;;4995891;28;20538;-83
2023/11/29 02:34:03;;;;;;;5.33;4.50;;;;;;;;;;4985086;28;20875;-84
2023/11/29 02:37:07;;;;;;;5.60;4.47;;;;;;;;;;4996319;28;20538;-84
2023/11/29 02:40:12;;;;;;;4.93;4.10;;;;;;;;;;4973734;28;20549;-84
2023/11/29 02:43:15;;;;;;;5.80;4.60;;;;;;;;;;4996935;28;20590;-84
2023/11/29 02:46:20;;;;;;;5.40;4.43;;;;;;;;;;4996830;28;20621;-83
2023/11/29 02:49:24;;;;;;;6.43;4.80;;;;;;;;;;4996280;28;20546;-83
2023/11/29 02:52:28;;;;;;;5.20;4.70;;;;;;;;;;4984857;28;20534;-84
2023/11/29 02:55:33;;;;;;;6.20;4.90;;;;;;;;;;4984593;28;20613;-85
2023/11/29 02:58:37;;;;;;;6.40;4.80;;;;;;;;;;4984791;28;20545;-84
2023/11/29 03:01:41;;;;;;;6.33;4.70;;;;;;;;;;4984675;28;20656;-83
2023/11/29 03:04:45;;;;;;;6.07;4.50;;;;;;;;;;4973659;28;20527;-83
2023/11/29 03:07:49;;;;;;;5.50;4.70;;;;;;;;;;4995874;28;20880;-83
2023/11/29 03:10:55;;;;;;;5.87;4.87;;;;;;;;;;4985977;28;20542;-82
2023/11/29 03:13:59;;;;;;;5.33;4.50;;;;;;;;;;4992088;28;20537;-82
2023/11/29 03:17:04;;;;;;;6.73;5.10;;;;;;;;;;5002925;28;20545;-83
2023/11/29 03:20:09;;;;;;;7.27;5.47;;;;;;;;;;4980255;28;20561;-81
2023/11/29 03:23:13;;;;;;;7.30;5.67;;;;;;;;;;5002515;28;20631;-81
2023/11/29 03:26:17;;;;;;;8.93;5.73;;;;;;;;;;4980872;28;20624;-83
2023/11/29 03:29:21;;;;;;;7.00;5.40;;;;;;;;;;4991606;28;20538;-82
2023/11/29 03:32:26;;;;;;;7.37;5.60;;;;;;;;;;4981269;28;20542;-83
2023/11/29 03:35:30;;;;;;;6.77;5.53;;;;;;;;;;5002588;28;20621;-82
2023/11/29 03:38:34;;;;;;;7.60;5.80;;;;;;;;;;5003576;28;20545;-83
2023/11/29 03:41:38;;;;;;;9.43;6.23;;;;;;;;;;4980669;28;20542;-83
2023/11/29 03:44:43;;;;;;;7.27;5.63;;;;;;;;;;5003855;28;20542;-82
2023/11/29 03:47:47;;;;;;;7.63;6.20;;;;;;;;;;4992617;28;20888;-83
2023/11/29 03:50:52;;;;;;;8.90;6.13;;;;;;;;;;4993055;28;20558;-82
2023/11/29 03:53:57;;;;;;;9.33;6.53;;;;;;;;;;4992433;28;21065;-82
2023/11/29 03:57:01;;;;;;;7.73;6.03;;;;;;;;;;4981171;28;20562;-83
2023/11/29 04:00:07;;;;;;;8.90;6.00;;;;;;;;;;5003389;28;20542;-82
2023/11/29 04:03:11;;;;;;;9.07;6.13;;;;;;;;;;5004806;28;20632;-82
2023/11/29 04:06:28;;;;;;;8.27;5.90;;;;;;;;;;4995856;28;20640;-83
2023/11/29 04:09:33;;;;;;;8.40;6.23;;;;;;;;;;4984158;28;20550;-82
2023/11/29 04:12:39;;;;;;;8.40;6.67;;;;;;;;;;4996188;28;20538;-84
2023/11/29 04:15:43;;;;;;;10.00;6.80;;;;;;;;;;5006072;28;20617;-84
2023/11/29 04:18:49;;;;;;;9.63;6.60;;;;;;;;;;5007450;28;20564;-84
2023/11/29 04:21:53;;;;;;;8.87;6.80;;;;;;;;;;4996410;28;20541;-84
2023/11/29 04:24:57;;;;;;;9.40;6.83;;;;;;;;;;4983584;28;20609;-83
2023/11/29 04:28:03;;;;;;;9.60;7.23;;;;;;;;;;4995056;28;20545;-84
2023/11/29 04:31:08;;;;;;;8.53;6.77;;;;;;;;;;4995716;28;20554;-84
2023/11/29 04:34:12;;;;;;;8.67;7.00;;;;;;;;;;4994664;28;20561;-84
2023/11/29 04:37:16;;;;;;;9.97;7.67;;;;;;;;;;5006154;28;20541;-83
2023/11/29 04:40:20;;;;;;;8.57;6.67;;;;;;;;;;4995103;28;21125;-83
2023/11/29 04:43:25;;;;;;;9.87;7.00;;;;;;;;;;5006283;28;20609;-83
2023/11/29 04:46:29;;;;;;;9.03;6.27;;;;;;;;;;5007168;28;20617;-83
2023/11/29 04:49:33;;;;;;;9.20;6.57;;;;;;;;;;4995902;28;21102;-82
2023/11/29 04:52:37;;;;;;;8.00;6.27;;;;;;;;;;5007532;28;20541;-83
2023/11/29 04:55:41;;;;;;;8.23;6.40;;;;;;;;;;5006922;28;20612;-84
2023/11/29 04:58:46;;;;;;;8.10;5.77;;;;;;;;;;4984475;28;20562;-83
2023/11/29 05:01:51;;;;;;;10.63;7.10;;;;;;;;;;4973447;28;20546;-84
2023/11/29 05:04:55;;;;;;;8.53;6.37;;;;;;;;;;4983975;28;21221;-82
2023/11/29 05:07:59;;;;;;;9.93;6.83;;;;;;;;;;4995293;28;20553;-83
2023/11/29 05:11:04;;;;;;;9.57;7.27;;;;;;;;;;5006153;28;20558;-84
2023/11/29 05:14:08;;;;;;;8.30;6.43;;;;;;;;;;4995483;28;20546;-83
2023/11/29 05:17:13;;;;;;;9.63;6.73;;;;;;;;;;4995292;28;20545;-82
2023/11/29 05:20:17;;;;;;;8.63;6.47;;;;;;;;;;4995695;28;20537;-83
2023/11/29 05:23:21;;;;;;;9.77;7.40;;;;;;;;;;4983252;28;20593;-84
2023/11/29 05:26:25;;;;;;;8.20;6.50;;;;;;;;;;4980213;28;20628;-83
2023/11/29 05:29:29;;;;;;;10.67;7.17;;;;;;;;;;5003381;28;20558;-84
2023/11/29 05:32:34;;;;;;;9.13;6.80;;;;;;;;;;5002878;28;20560;-83
2023/11/29 05:35:38;;;;;;;9.80;7.30;;;;;;;;;;5003211;28;20620;-84
2023/11/29 05:38:42;;;;;;;11.07;7.20;;;;;;;;;;4992024;28;20558;-84
2023/11/29 05:41:47;;;;;;;10.07;6.87;;;;;;;;;;5002189;28;20568;-82
2023/11/29 05:44:54;;;;;;;10.73;7.63;;;;;;;;;;4991271;28;20609;-82
2023/11/29 05:47:58;;;;;;;11.40;7.23;;;;;;;;;;4980683;28;20561;-82
2023/11/29 05:51:04;;;;;;;11.47;8.10;;;;;;;;;;5003346;28;20562;-84
2023/11/29 05:54:08;;;;;;;10.57;8.00;;;;;;;;;;5002190;28;20559;-83
2023/11/29 05:57:12;;;;;;;10.57;7.93;;;;;;;;;;5002408;28;20546;-84
2023/11/29 06:00:18;;;;;;;9.80;7.70;;;;;;;;;;5002161;28;20564;-83
2023/11/29 06:03:25;;;;;;;11.70;7.73;;;;;;;;;;4991117;28;20618;-82
2023/11/29 06:06:30;;;;;;;11.97;8.00;;;;;;;;;;5001211;28;20657;-83
2023/11/29 06:09:36;;;;;;;11.63;7.57;;;;;;;;;;4980552;28;20557;-82
2023/11/29 06:12:40;;;;;;;9.17;6.37;;;;;;;;;;5000069;28;20568;-84
2023/11/29 06:15:45;;;;;;;17.43;11.43;;;;;;;;;;5000064;28;20978;-83
2023/11/29 06:18:49;;;;;;;14.60;9.37;;;;;;;;;;5001286;28;20576;-85
2023/11/29 06:21:54;;;;;;;13.83;10.00;;;;;;;;;;4989859;28;21117;-84
2023/11/29 06:24:59;;;;;;;12.57;9.17;;;;;;;;;;4989554;28;20660;-82
2023/11/29 06:28:04;;;;;;;13.57;10.23;;;;;;;;;;5002387;28;20553;-83
2023/11/29 06:31:08;;;;;;;13.10;9.57;;;;;;;;;;4990859;28;20561;-84
2023/11/29 06:34:12;;;;;;;20.77;11.37;;;;;;;;;;5000240;28;20560;-83
2023/11/29 06:37:16;;;;;;;64.00;29.37;;;;;;;;;;5001321;28;20561;-84
2023/11/29 06:40:20;;;;;;;23.13;14.83;;;;;;;;;;5003567;28;20918;-84
2023/11/29 06:43:25;;;;;;;18.63;12.67;;;;;;;;;;4979068;28;20617;-82
2023/11/29 06:46:29;;;;;;;15.47;11.20;;;;;;;;;;5001774;28;20628;-83
2023/11/29 06:49:33;;;;;;;19.17;13.37;;;;;;;;;;4979006;28;20565;-82
2023/11/29 06:52:38;;;;;;;22.47;15.53;;;;;;;;;;5001270;28;20565;-83
2023/11/29 06:55:42;;;;;;;24.00;15.13;;;;;;;;;;4990574;28;20616;-82
2023/11/29 06:58:46;;;;;;;26.50;17.17;;;;;;;;;;4989668;28;20560;-84
2023/11/29 07:01:52;;;;;;;24.23;15.03;;;;;;;;;;4978629;28;20568;-83
2023/11/29 07:04:56;;;;;;;18.70;13.13;;;;;;;;;;4990260;28;20668;-85
2023/11/29 07:08:00;;;;;;;16.73;12.10;;;;;;;;;;4977842;28;20561;-83
2023/11/29 07:11:05;;;;;;;15.50;10.80;;;;;;;;;;4978885;28;20564;-83
2023/11/29 07:14:09;;;;;;;16.63;10.53;;;;;;;;;;4979811;28;20561;-83
2023/11/29 07:17:14;;;;;;;17.07;11.03;;;;;;;;;;4979919;28;20577;-83
2023/11/29 07:20:17;;;;;;;15.80;9.87;;;;;;;;;;4981131;28;20564;-82
2023/11/29 07:23:22;;;;;;;13.87;9.50;;;;;;;;;;4991641;28;20550;-83
2023/11/29 07:26:26;;;;;;;15.27;8.87;;;;;;;;;;4990907;28;20630;-82
2023/11/29 07:29:30;;;;;;;13.63;8.73;;;;;;;;;;4991396;28;20568;-82
2023/11/29 07:32:34;;;;;;;13.37;8.47;;;;;;;;;;5001986;28;20574;-82
2023/11/29 07:35:39;;;;;;;13.30;9.20;;;;;;;;;;4990619;28;20616;-83
2023/11/29 07:38:45;;;;;;;15.33;9.50;;;;;;;;;;4993850;28;20558;-83
2023/11/29 07:41:49;;;;;;;14.53;9.73;;;;;;;;;;4996732;28;20568;-82
2023/11/29 07:44:58;;;;;;;16.13;9.73;;;;;;;;;;4996019;28;20662;-84
2023/11/29 07:48:02;;;;;;;14.60;9.90;;;;;;;;;;4995291;28;20564;-83
2023/11/29 07:51:07;;;;;;;15.43;11.03;;;;;;;;;;4983691;28;20564;-84
2023/11/29 07:54:11;;;;;;;23.27;16.67;;;;;;;;;;4983839;28;20553;-82
2023/11/29 07:57:16;;;;;;;20.57;13.57;;;;;;;;;;4982123;28;20561;-82
2023/11/29 08:00:20;;;;;;;15.50;10.57;;;;;;;;;;5005648;28;20580;-83
2023/11/29 08:03:25;;;;;;;14.63;10.83;;;;;;;;;;5004914;28;20568;-82
2023/11/29 08:06:29;;;;;;;13.00;10.47;;;;;;;;;;5003368;28;21263;-82
2023/11/29 08:09:34;;;;;;;12.00;8.47;;;;;;;;;;5004467;28;20561;-84
2023/11/29 08:12:38;;;;;;;12.57;8.40;;;;;;;;;;5003956;28;20554;-83
2023/11/29 08:15:42;;;;;;;12.20;8.60;;;;;;;;;;4992369;28;20617;-82
2023/11/29 08:18:46;;;;;;;11.30;7.87;;;;;;;;;;5003515;28;20557;-83
2023/11/29 08:21:51;;;;;;;11.97;8.10;;;;;;;;;;5001482;28;20558;-82
2023/11/29 08:24:55;;;;;;;14.10;7.70;;;;;;;;;;4987122;28;20606;-84
2023/11/29 08:27:59;;;;;;;12.57;8.63;;;;;;;;;;4987490;28;20557;-84
2023/11/29 08:31:03;;;;;;;12.03;8.23;;;;;;;;;;4999115;28;21137;-84
2023/11/29 08:34:07;;;;;;;10.80;7.63;;;;;;;;;;4989340;28;21101;-82
2023/11/29 08:37:11;;;;;;;12.73;8.33;;;;;;;;;;5002262;28;20558;-86
2023/11/29 08:40:16;;;;;;;12.10;7.97;;;;;;;;;;4988905;28;20545;-83
2023/11/29 08:43:20;;;;;;;12.93;8.20;;;;;;;;;;5000673;28;20553;-83
2023/11/29 08:46:24;;;;;;;12.03;8.20;;;;;;;;;;5000616;28;20609;-83
2023/11/29 08:49:28;;;;;;;13.17;8.03;;;;;;;;;;4977950;28;20553;-83
2023/11/29 08:52:32;;;;;;;11.70;8.20;;;;;;;;;;4999305;28;20549;-83
2023/11/29 08:55:42;;;;;;;11.80;8.20;;;;;;;;;;5000622;28;20613;-83
2023/11/29 08:58:46;;;;;;;13.00;7.93;;;;;;;;;;5000320;28;20546;-84
2023/11/29 09:01:53;;;;;;;10.60;7.40;;;;;;;;;;5000175;28;20562;-86
2023/11/29 09:04:58;;;;;;;11.90;7.93;;;;;;;;;;5000534;28;20657;-83
2023/11/29 09:08:03;;;;;;;12.33;8.00;;;;;;;;;;4988592;28;20554;-83
2023/11/29 09:11:08;;;;;;;14.03;8.03;;;;;;;;;;5002136;28;20562;-82
2023/11/29 09:14:12;;;;;;;9.83;7.33;;;;;;;;;;4990399;28;21114;-82
2023/11/29 09:17:17;;;;;;;10.53;7.37;;;;;;;;;;4990362;28;20558;-82
2023/11/29 09:20:21;;;;;;;10.93;7.40;;;;;;;;;;4990465;28;20900;-82
2023/11/29 09:23:25;;;;;;;10.30;6.07;;;;;;;;;;4980918;28;20558;-83
2023/11/29 09:26:30;;;;;;;9.50;6.67;;;;;;;;;;4980921;28;20613;-82
2023/11/29 09:29:35;;;;;;;9.30;6.80;;;;;;;;;;4992518;28;20558;-83
2023/11/29 09:32:39;;;;;;;10.33;6.60;;;;;;;;;;4980398;28;20557;-83
2023/11/29 09:35:44;;;;;;;9.17;5.90;;;;;;;;;;4991388;28;20617;-82
2023/11/29 09:38:48;;;;;;;8.70;6.20;;;;;;;;;;4980460;28;21097;-83
2023/11/29 09:41:52;;;;;;;8.77;6.03;;;;;;;;;;5003305;28;20554;-83
2023/11/29 09:44:57;;;;;;;9.23;6.23;;;;;;;;;;5003060;28;20657;-82
2023/11/29 09:48:03;;;;;;;8.17;6.10;;;;;;;;;;5002589;28;20554;-84
2023/11/29 09:51:07;;;;;;;10.07;6.97;;;;;;;;;;4989414;28;20553;-82
2023/11/29 09:54:11;;;;;;;10.03;6.27;;;;;;;;;;5000829;28;20550;-82
2023/11/29 09:57:16;;;;;;;7.90;5.50;;;;;;;;;;5002076;28;20553;-82
2023/11/29 10:00:20;;;;;;;8.80;5.77;;;;;;;;;;4978240;28;20554;-82
2023/11/29 10:03:26;;;;;;;8.30;5.60;;;;;;;;;;5001158;28;20896;-83
2023/11/29 10:06:31;;;;;;;9.03;5.97;;;;;;;;;;4989230;28;20645;-84
2023/11/29 10:09:38;;;;;;;7.80;6.40;;;;;;;;;;5000658;28;20546;-84
2023/11/29 10:12:44;;;;;;;9.07;6.83;;;;;;;;;;4988133;28;20562;-83
2023/11/29 10:15:54;;;;;;;9.97;6.57;;;;;;;;;;4999662;28;20610;-83
2023/11/29 10:19:01;;;;;;;7.27;5.30;;;;;;;;;;4989090;28;20554;-82
2023/11/29 10:22:05;;;;;;;8.00;5.43;;;;;;;;;;4999256;28;20550;-83
2023/11/29 10:25:17;;;;;;;9.87;6.90;;;;;;;;;;4988346;28;21213;-82
2023/11/29 10:28:22;;;;;;;10.83;7.07;;;;;;;;;;4987990;28;20546;-83
2023/11/29 10:31:27;;;;;;;10.83;6.17;;;;;;;;;;4988012;28;20550;-83
2023/11/29 10:34:33;;;;;;;9.00;6.70;;;;;;;;;;4988130;28;20550;-83
2023/11/29 10:37:44;;;;;;;7.97;5.77;;;;;;;;;;4999659;28;21117;-83
2023/11/29 10:40:49;;;;;;;7.73;5.80;;;;;;;;;;4976045;28;20562;-84
2023/11/29 10:43:59;;;;;;;9.00;6.40;;;;;;;;;;4999226;28;20546;-83
2023/11/29 10:47:26;;;;;;;10.40;7.67;;;;;;;;;;4998782;28;20551;-83
2023/11/29 10:50:31;;;;;;;9.47;5.90;;;;;;;;;;4997900;28;20558;-83
2023/11/29 10:53:37;;;;;;;7.53;5.43;;;;;;;;;;4975245;28;20542;-83
2023/11/29 10:56:41;;;;;;;6.43;5.13;;;;;;;;;;4985237;28;20217;-82
2023/11/29 10:59:54;;;;;;;9.73;7.50;;;;;;;;;;4996593;28;20190;-84
2023/11/29 11:02:58;;;;;;;7.63;6.17;;;;;;;;;;4996213;28;20554;-84
2023/11/29 11:06:21;;;;;;;8.40;6.60;;;;;;;;;;4984202;28;20229;-83
2023/11/29 11:09:31;;;;;;;7.50;5.67;;;;;;;;;;4996218;28;20182;-83
2023/11/29 11:12:36;;;;;;;8.40;5.93;;;;;;;;;;4998736;28;20557;-82
2023/11/29 11:15:40;;;;;;;5.47;4.90;;;;;;;;;;4991096;28;20621;-82
2023/11/29 11:18:44;;;;;;;7.80;5.50;;;;;;;;;;5002396;28;20182;-83
2023/11/29 11:21:48;;;;;;;5.63;4.50;;;;;;;;;;5003761;28;21113;-83
2023/11/29 11:25:07;;;;;;;9.60;6.83;;;;;;;;;;5003345;28;20613;-83
2023/11/29 11:28:41;;;;;;;8.83;6.70;;;;;;;;;;5003266;28;20562;-83
2023/11/29 11:31:45;;;;;;;8.63;7.07;;;;;;;;;;4991839;28;20534;-82
2023/11/29 11:34:48;;;;;;;12.40;8.50;;;;;;;;;;5002891;28;20182;-82
2023/11/29 11:37:58;;;;;;;7.33;5.87;;;;;;;;;;5002727;28;20561;-83
2023/11/29 11:41:02;;;;;;;11.10;7.53;;;;;;;;;;5002934;28;20554;-82
2023/11/29 11:44:07;;;;;;;11.57;7.20;;;;;;;;;;5003222;28;20546;-82
2023/11/29 11:47:11;;;;;;;13.57;8.80;;;;;;;;;;5002041;28;20542;-83
2023/11/29 11:50:19;;;;;;;20.60;12.07;;;;;;;;;;4991606;28;20550;-83
2023/11/29 11:53:23;;;;;;;12.73;8.23;;;;;;;;;;4992371;28;20548;-83
2023/11/29 11:56:28;;;;;;;13.27;7.27;;;;;;;;;;5008272;28;20617;-83
2023/11/29 11:59:32;;;;;;;12.80;7.97;;;;;;;;;;5011569;28;20178;-83
2023/11/29 12:02:37;;;;;;;6.90;5.50;;;;;;;;;;5009709;28;20182;-84
2023/11/29 12:05:42;;;;;;;9.20;7.10;;;;;;;;;;4987020;28;20225;-84
2023/11/29 12:08:47;;;;;;;5.50;4.50;;;;;;;;;;5007755;28;20182;-82
2023/11/29 12:12:14;;;;;;;4.80;3.90;;;;;;;;;;5006944;28;20553;-82
2023/11/29 12:15:18;;;;;;;5.47;4.33;;;;;;;;;;4996762;28;20612;-82
2023/11/29 12:18:24;;;;;;;7.30;5.67;;;;;;;;;;4989695;23;21032;-83
2023/11/29 12:21:29;;;;;;;5.57;4.60;;;;;;;;;;4943792;29;20184;-82
2023/11/29 12:24:44;;;;;;;4.43;3.63;;;;;;;;;;4940245;29;20188;-83
2023/11/29 12:27:50;;;;;;;5.57;4.53;;;;;;;;;;4940919;29;20577;-83
2023/11/29 12:30:58;;;;;;;4.70;4.13;;;;;;;;;;4940005;29;20176;-83
2023/11/29 12:34:04;;;;;;;4.50;3.73;;;;;;;;;;4941542;29;20184;-83
2023/11/29 12:37:12;;;;;;;5.53;4.03;;;;;;;;;;4929573;29;20215;-83
2023/11/29 12:40:17;;;;;;;4.87;4.20;;;;;;;;;;4939925;29;20185;-83
2023/11/29 12:43:21;;;;;;;5.67;3.77;;;;;;;;;;4941340;29;20560;-83
2023/11/29 12:46:25;;;;;;;4.97;3.63;;;;;;;;;;4940946;29;20208;-83
2023/11/29 12:49:30;;;;;;;4.17;3.37;;;;;;;;;;4940512;29;20180;-83
2023/11/29 12:52:35;;;;;;;3.53;2.90;;;;;;;;;;4939974;29;20185;-80
2023/11/29 12:55:39;;;;;;;4.63;3.70;;;;;;;;;;4940781;29;20176;-80
2023/11/29 12:58:43;;;;;;;5.97;4.03;;;;;;;;;;4939328;29;20176;-80
2023/11/29 13:01:48;;;;;;;4.30;3.70;;;;;;;;;;4939988;29;20184;-81
2023/11/29 13:04:52;;;;;;;6.67;3.53;;;;;;;;;;4940951;29;20538;-80
2023/11/29 13:07:56;;;;;;;6.00;4.80;;;;;;;;;;4939308;29;20219;-80
2023/11/29 13:11:00;;;;;;;4.63;3.80;;;;;;;;;;4939864;29;20180;-81
2023/11/29 13:14:06;;;;;;;13.10;7.43;;;;;;;;;;4939005;29;20180;-80
2023/11/29 13:17:12;;;;;;;17.40;8.40;;;;;;;;;;4938457;29;20215;-80
2023/11/29 13:20:16;;;;;;;16.80;12.13;;;;;;;;;;4939169;29;20522;-83
2023/11/29 13:23:20;;;;;;;14.30;7.60;;;;;;;;;;4939709;29;20188;-83
2023/11/29 13:26:25;;;;;;;3.87;3.23;;;;;;;;;;4939622;29;20681;-83
2023/11/29 13:29:30;;;;;;;9.80;6.10;;;;;;;;;;4940209;29;20176;-83
2023/11/29 13:32:34;;;;;;;57.10;24.00;;;;;;;;;;4941078;29;20180;-83
2023/11/29 13:35:39;;;;;;;7.80;5.87;;;;;;;;;;4939121;29;20176;-83
2023/11/29 13:38:43;;;;;;;9.87;6.90;;;;;;;;;;4938771;29;20176;-83
2023/11/29 13:41:47;;;;;;;8.07;5.70;;;;;;;;;;4939851;29;20184;-83
2023/11/29 13:44:52;;;;;;;31.87;18.17;;;;;;;;;;4939941;29;20196;-83
2023/11/29 13:47:57;;;;;;;15.23;9.40;;;;;;;;;;4938855;29;20212;-83
2023/11/29 13:51:01;;;;;;;7.27;4.50;;;;;;;;;;4939518;29;20641;-83
2023/11/29 13:54:05;;;;;;;3.40;3.10;;;;;;;;;;4939637;29;20176;-84
2023/11/29 13:57:09;;;;;;;3.70;2.80;;;;;;;;;;4939655;29;20212;-83
2023/11/29 14:00:14;;;;;;;5.10;3.10;;;;;;;;;;4940621;29;20522;-83
2023/11/29 14:03:18;;;;;;;3.80;3.37;;;;;;;;;;4939948;29;20184;-83
2023/11/29 14:06:23;;;;;;;2.97;2.37;;;;;;;;;;4939458;29;20212;-83
2023/11/29 14:09:27;;;;;;;2.40;2.07;;;;;;;;;;4939985;29;20184;-83
2023/11/29 14:12:31;;;;;;;2.77;2.20;;;;;;;;;;4929112;29;20188;-83
2023/11/29 14:15:35;;;;;;;3.10;2.40;;;;;;;;;;4940604;29;20176;-83
2023/11/29 14:18:39;;;;;;;3.80;2.50;;;;;;;;;;4940169;29;20219;-84
2023/11/29 14:21:44;;;;;;;5.43;2.67;;;;;;;;;;4929480;29;20176;-84
2023/11/29 14:24:49;;;;;;;3.67;2.50;;;;;;;;;;4940326;29;20176;-84
2023/11/29 14:27:53;;;;;;;2.40;2.20;;;;;;;;;;4940747;29;20208;-83
2023/11/29 14:30:57;;;;;;;2.77;2.47;;;;;;;;;;4929860;29;20495;-83
2023/11/29 14:34:02;;;;;;;2.43;2.20;;;;;;;;;;4929239;29;20184;-83
2023/11/29 14:37:06;;;;;;;5.03;2.70;;;;;;;;;;4929249;29;20212;-83
2023/11/29 14:40:11;;;;;;;18.37;11.63;;;;;;;;;;4942930;29;20183;-81
2023/11/29 14:43:15;;;;;;;37.77;21.13;;;;;;;;;;4939414;29;20198;-81
2023/11/29 14:46:19;;;;;;;17.77;10.90;;;;;;;;;;4938941;29;20225;-83
2023/11/29 14:49:25;;;;;;;5.17;4.27;;;;;;;;;;4917368;29;20195;-83
2023/11/29 14:52:29;;;;;;;4.27;3.20;;;;;;;;;;4938850;29;20283;-83
2023/11/29 14:55:33;;;;;;;6.70;3.00;;;;;;;;;;4939045;29;20188;-83
2023/11/29 14:58:37;;;;;;;3.73;3.33;;;;;;;;;;4927945;29;20216;-83
2023/11/29 15:01:41;;;;;;;3.27;2.90;;;;;;;;;;4928281;29;20637;-80
2023/11/29 15:04:45;;;;;;;3.30;2.87;;;;;;;;;;4939579;29;20626;-80
2023/11/29 15:07:50;;;;;;;27.57;16.73;;;;;;;;;;4940539;29;20235;-81
2023/11/29 15:10:54;;;;;;;11.23;8.60;;;;;;;;;;4939943;29;20203;-81
2023/11/29 15:13:58;;;;;;;5.17;4.33;;;;;;;;;;4928201;29;20184;-81
2023/11/29 15:17:02;;;;;;;4.63;3.70;;;;;;;;;;4939218;29;20586;-83
2023/11/29 15:20:07;;;;;;;3.57;3.20;;;;;;;;;;4938333;29;20184;-85
2023/11/29 15:23:11;;;;;;;4.23;2.30;;;;;;;;;;4937869;29;20629;-85
2023/11/29 15:26:16;;;;;;;2.80;2.60;;;;;;;;;;4937440;29;20694;-85
2023/11/29 15:29:20;;;;;;;3.23;2.53;;;;;;;;;;4938342;29;20188;-85
2023/11/29 15:32:24;;;;;;;3.63;2.87;;;;;;;;;;4938261;29;20523;-85
2023/11/29 15:35:28;;;;;;;3.40;2.63;;;;;;;;;;4937641;29;20184;-85
2023/11/29 15:38:32;;;;;;;3.20;2.73;;;;;;;;;;4937825;29;20239;-85
2023/11/29 15:41:37;;;;;;;5.77;3.80;;;;;;;;;;4937392;29;20188;-87
2023/11/29 15:44:42;;;;;;;9.40;3.53;;;;;;;;;;4926117;29;20541;-85
2023/11/29 15:47:46;;;;;;;4.50;3.30;;;;;;;;;;4937982;29;20660;-85
2023/11/29 15:50:51;;;;;;;4.33;3.20;;;;;;;;;;4938381;29;20544;-85
2023/11/29 15:53:55;;;;;;;4.53;3.40;;;;;;;;;;4937761;29;20545;-85
2023/11/29 15:56:59;;;;;;;5.00;3.97;;;;;;;;;;4925703;29;20616;-85
2023/11/29 16:00:04;;;;;;;5.07;4.00;;;;;;;;;;4928590;29;20564;-85
2023/11/29 16:03:11;;;;;;;7.63;4.30;;;;;;;;;;4940530;29;20540;-85
2023/11/29 16:06:15;;;;;;;5.73;3.80;;;;;;;;;;4941466;29;20588;-85
2023/11/29 16:09:19;;;;;;;4.03;3.63;;;;;;;;;;4940426;29;20537;-85
2023/11/29 16:12:24;;;;;;;5.17;4.13;;;;;;;;;;4940560;29;20540;-85
2023/11/29 16:15:28;;;;;;;5.73;3.90;;;;;;;;;;4940472;29;20540;-85
2023/11/29 16:18:32;;;;;;;4.93;4.13;;;;;;;;;;4940970;29;21207;-85
2023/11/29 16:21:36;;;;;;;4.97;3.70;;;;;;;;;;4919530;29;20544;-85
2023/11/29 16:24:40;;;;;;;7.83;3.73;;;;;;;;;;4943255;29;20556;-83
2023/11/29 16:27:45;;;;;;;8.47;4.67;;;;;;;;;;4941094;29;20655;-85
2023/11/29 16:30:49;;;;;;;7.53;4.20;;;;;;;;;;4939405;29;20544;-86
2023/11/29 16:33:53;;;;;;;5.10;3.90;;;;;;;;;;4939478;29;20541;-86
2023/11/29 16:36:57;;;;;;;5.60;4.20;;;;;;;;;;4927707;29;20620;-86
2023/11/29 16:40:01;;;;;;;4.80;3.60;;;;;;;;;;4939912;29;20883;-86
2023/11/29 16:43:05;;;;;;;4.43;3.70;;;;;;;;;;4939669;29;20544;-86
2023/11/29 16:46:09;;;;;;;4.90;4.00;;;;;;;;;;4938974;29;20548;-86
2023/11/29 16:49:13;;;;;;;5.87;3.80;;;;;;;;;;4939497;29;21100;-86
2023/11/29 16:52:17;;;;;;;5.50;4.10;;;;;;;;;;4938775;29;20540;-86
2023/11/29 16:55:22;;;;;;;5.43;4.27;;;;;;;;;;4938410;29;21057;-86
2023/11/29 16:58:26;;;;;;;5.87;3.90;;;;;;;;;;4937751;29;21179;-86
2023/11/29 17:01:30;;;;;;;6.07;3.87;;;;;;;;;;4938129;29;20557;-86
2023/11/29 17:04:37;;;;;;;5.33;3.70;;;;;;;;;;4938877;29;20540;-86
2023/11/29 17:07:41;;;;;;;4.73;3.57;;;;;;;;;;4927053;29;20652;-86
2023/11/29 17:10:45;;;;;;;4.80;3.60;;;;;;;;;;4938075;29;20540;-86
2023/11/29 17:13:52;;;;;;;5.00;3.90;;;;;;;;;;4939081;29;20548;-86
2023/11/29 17:16:56;;;;;;;5.33;3.90;;;;;;;;;;4938377;29;20228;-86
2023/11/29 17:20:05;;;;;;;4.93;3.90;;;;;;;;;;4937767;29;20552;-86
2023/11/29 17:23:09;;;;;;;5.37;3.87;;;;;;;;;;4938677;29;20541;-86
2023/11/29 17:26:13;;;;;;;4.50;3.80;;;;;;;;;;4937916;29;20552;-86
2023/11/29 17:29:17;;;;;;;4.80;3.53;;;;;;;;;;4927050;29;20544;-86
2023/11/29 17:32:22;;;;;;;10.93;7.23;;;;;;;;;;4938163;29;20541;-86
2023/11/29 17:35:26;;;;;;;8.87;6.63;;;;;;;;;;4937845;29;20536;-86
2023/11/29 17:38:30;;;;;;;8.33;5.33;;;;;;;;;;4926641;29;20612;-86
2023/11/29 17:41:34;;;;;;;7.30;4.83;;;;;;;;;;4937552;29;20537;-86
2023/11/29 17:44:38;;;;;;;4.77;3.80;;;;;;;;;;4937382;29;20540;-86
2023/11/29 17:47:42;;;;;;;7.00;3.90;;;;;;;;;;4937996;29;21207;-86
2023/11/29 17:50:46;;;;;;;4.47;3.53;;;;;;;;;;4937848;29;20536;-86
2023/11/29 17:53:51;;;;;;;8.47;4.17;;;;;;;;;;4926885;29;20540;-86
2023/11/29 17:56:55;;;;;;;5.33;4.10;;;;;;;;;;4937054;29;20608;-86
2023/11/29 17:59:59;;;;;;;5.50;3.97;;;;;;;;;;4938202;29;20549;-86
2023/11/29 18:03:04;;;;;;;5.00;3.90;;;;;;;;;;4937532;29;20541;-86
2023/11/29 18:06:08;;;;;;;4.60;3.57;;;;;;;;;;4937404;29;20548;-86
2023/11/29 18:09:13;;;;;;;6.80;4.50;;;;;;;;;;4937129;29;20879;-86
2023/11/29 18:12:17;;;;;;;7.13;4.73;;;;;;;;;;4937067;29;20545;-86
2023/11/29 18:15:21;;;;;;;7.60;5.63;;;;;;;;;;4936791;29;20545;-86
2023/11/29 18:18:27;;;;;;;10.20;5.77;;;;;;;;;;4937581;29;20644;-83
2023/11/29 18:21:31;;;;;;;6.83;4.90;;;;;;;;;;4937845;29;21101;-83